Time;durP1;ratioP1;P1;durP2;ratioP2;P2;SDS_P1;SDS_P2;PMS_P1;PMS_P2;Temp;Humidity;BMP_temperature;BMP_pressure;BME280_temperature;BME280_humidity;BME280_pressure;Samples;Min_cycle;Max_cycle;Signal;HPM_P1;HPM_P2
2021/05/06 00:01:56;;;;;;;10.10;8.07;;;5.40;99.90;;;;;;5053994;28;20017;-84
2021/05/06 00:32:37;;;;;;;5.60;4.60;;;5.40;99.90;;;;;;5064274;28;20086;-86
2021/05/06 00:34:31;;;;;;;8.30;6.60;;;5.40;99.90;;;;;;5059281;28;20032;-86
2021/05/06 00:36:56;;;;;;;8.00;7.20;;;5.30;99.90;;;;;;5063415;28;20021;-85
2021/05/06 00:39:25;;;;;;;9.57;8.18;;;5.30;99.90;;;;;;5060327;28;20028;-85
2021/05/06 01:03:44;;;;;;;7.43;6.63;;;5.20;99.90;;;;;;5058246;28;20029;-84
2021/05/06 01:06:04;;;;;;;10.15;7.25;;;5.20;99.90;;;;;;5060533;28;20036;-85
2021/05/06 01:08:33;;;;;;;10.38;7.97;;;5.20;99.90;;;;;;5060230;28;20480;-85
2021/05/06 01:11:09;;;;;;;8.67;7.57;;;5.20;99.90;;;;;;5070421;28;20033;-83
2021/05/06 01:13:35;;;;;;;10.05;7.38;;;5.20;99.90;;;;;;5059076;28;20070;-83
2021/05/06 01:16:01;;;;;;;7.43;6.25;;;5.30;99.90;;;;;;5070203;28;20013;-83
2021/05/06 01:18:26;;;;;;;8.90;7.25;;;5.30;99.90;;;;;;5055175;28;20365;-83
2021/05/06 01:20:59;;;;;;;9.00;7.10;;;5.30;99.90;;;;;;5055193;28;20023;-83
2021/05/06 01:23:26;;;;;;;8.43;6.32;;;5.30;99.90;;;;;;5058378;28;20025;-83
2021/05/06 01:25:54;;;;;;;7.15;5.47;;;5.30;99.90;;;;;;5056995;28;20108;-83
2021/05/06 01:28:24;;;;;;;5.45;4.95;;;5.40;99.90;;;;;;5054650;28;20021;-83
2021/05/06 01:30:57;;;;;;;7.28;5.65;;;5.40;99.90;;;;;;5055027;28;20068;-83
2021/05/06 01:33:31;;;;;;;7.82;5.32;;;5.40;99.90;;;;;;5055024;28;20112;-84
2021/05/06 01:36:03;;;;;;;5.15;4.57;;;5.50;99.90;;;;;;5056389;28;20024;-84
2021/05/06 02:00:11;;;;;;;5.30;4.60;;;5.70;99.90;;;;;;5064910;28;20021;-85
2021/05/06 02:02:37;;;;;;;6.22;5.18;;;5.70;99.90;;;;;;5059753;28;20484;-84
2021/05/06 02:05:04;;;;;;;6.78;4.50;;;5.70;99.90;;;;;;5059249;28;20035;-85
2021/05/06 02:07:30;;;;;;;7.05;5.32;;;5.70;99.90;;;;;;5054836;28;20021;-84
2021/05/06 02:09:55;;;;;;;4.95;4.20;;;5.70;99.90;;;;;;5055836;28;20071;-85
2021/05/06 02:12:21;;;;;;;5.00;4.50;;;5.70;99.90;;;;;;5056455;28;20031;-84
2021/05/06 02:15:01;;;;;;;8.10;6.45;;;5.70;99.90;;;;;;5053628;28;20509;-85
2021/05/06 02:17:26;;;;;;;;;;;5.70;99.90;;;;;;5058189;28;20017;-85
2021/05/06 02:19:52;;;;;;;6.65;5.63;;;5.60;99.90;;;;;;5052655;28;20256;-84
2021/05/06 02:22:19;;;;;;;7.82;5.85;;;5.60;99.90;;;;;;5057513;28;20079;-84
2021/05/06 02:24:45;;;;;;;6.68;5.32;;;5.60;99.90;;;;;;5058493;28;20017;-85
2021/05/06 02:27:11;;;;;;;5.40;4.90;;;5.60;99.90;;;;;;5055539;28;20495;-85
2021/05/06 02:29:37;;;;;;;8.48;5.00;;;5.60;99.90;;;;;;5069673;28;20017;-85
2021/05/06 02:32:03;;;;;;;6.18;5.45;;;5.70;99.90;;;;;;5052796;28;20033;-85
2021/05/06 02:34:29;;;;;;;7.28;6.15;;;5.70;99.90;;;;;;5053347;28;20025;-84
2021/05/06 02:36:55;;;;;;;6.25;5.25;;;5.70;99.90;;;;;;5053426;28;20013;-84
2021/05/06 02:39:20;;;;;;;6.95;5.80;;;5.70;99.90;;;;;;5056741;28;20021;-84
2021/05/06 02:41:46;;;;;;;7.28;6.18;;;5.60;99.90;;;;;;5057594;28;20025;-84
2021/05/06 02:44:11;;;;;;;7.00;6.30;;;5.60;99.90;;;;;;5052715;28;20061;-85
2021/05/06 02:46:37;;;;;;;7.40;5.60;;;5.60;99.90;;;;;;5054112;28;20052;-84
2021/05/06 02:49:02;;;;;;;7.05;5.72;;;5.60;99.90;;;;;;5071385;28;20056;-84
2021/05/06 02:51:36;;;;;;;6.43;5.38;;;5.60;99.90;;;;;;5058078;28;20021;-85
2021/05/06 02:54:01;;;;;;;6.65;5.40;;;5.60;99.90;;;;;;5057062;28;20092;-84
2021/05/06 03:04:17;;;;;;;7.57;6.72;;;5.30;99.90;;;;;;5058861;28;20053;-85
2021/05/06 03:06:53;;;;;;;9.57;7.70;;;5.20;99.90;;;;;;5054416;28;20472;-85
2021/05/06 03:09:53;;;;;;;11.27;8.43;;;5.20;99.90;;;;;;5054237;28;20029;-84
2021/05/06 03:12:57;;;;;;;9.38;7.72;;;5.10;99.90;;;;;;5055623;28;20013;-85
2021/05/06 03:23:40;;;;;;;9.98;7.90;;;4.60;99.90;;;;;;5058136;28;20028;-85
2021/05/06 03:26:05;;;;;;;61.05;7.80;;;4.60;99.90;;;;;;5058784;28;20444;-84
2021/05/06 03:28:38;;;;;;;8.93;5.90;;;4.70;99.90;;;;;;5055035;28;20062;-85
2021/05/06 03:31:28;;;;;;;8.05;5.78;;;4.70;99.90;;;;;;5053388;28;20041;-85
2021/05/06 04:27:45;;;;;;;23.60;19.67;;;5.00;99.90;;;;;;5060270;28;20055;-84
2021/05/06 04:30:37;;;;;;;20.45;17.23;;;5.00;99.90;;;;;;5063791;28;20464;-85
2021/05/06 04:35:48;;;;;;;23.33;18.85;;;5.00;99.90;;;;;;5056935;28;20028;-85
2021/05/06 04:38:17;;;;;;;22.33;19.02;;;5.00;99.90;;;;;;5054621;28;20025;-85
2021/05/06 04:41:07;;;;;;;23.15;18.50;;;5.00;99.90;;;;;;5056967;28;20017;-85
2021/05/06 04:46:44;;;;;;;19.85;17.65;;;5.00;99.90;;;;;;5056399;28;20071;-85
2021/05/06 04:54:44;;;;;;;24.00;20.73;;;5.00;99.90;;;;;;5060359;28;20119;-85
2021/05/06 05:05:22;;;;;;;27.70;23.13;;;5.10;99.90;;;;;;5058074;28;20404;-85
2021/05/06 05:07:51;;;;;;;30.40;24.98;;;5.10;99.90;;;;;;5057619;28;20025;-85
2021/05/06 05:13:07;;;;;;;31.70;26.83;;;5.10;99.90;;;;;;5060358;28;20464;-85
2021/05/06 05:18:28;;;;;;;28.60;24.50;;;5.10;99.90;;;;;;5061635;28;20028;-85
2021/05/06 05:23:53;;;;;;;35.10;27.77;;;5.00;99.90;;;;;;5060548;28;20039;-85
2021/05/06 05:26:19;;;;;;;31.92;26.98;;;5.10;99.90;;;;;;5059515;28;20399;-85
2021/05/06 05:28:44;;;;;;;31.95;27.00;;;5.20;99.90;;;;;;5058303;28;20025;-86
2021/05/06 05:31:10;;;;;;;37.90;30.65;;;5.20;99.90;;;;;;5064009;28;20487;-86
2021/05/06 05:34:39;;;;;;;33.75;26.65;;;5.20;99.90;;;;;;5071979;28;20040;-86
2021/05/06 05:36:31;;;;;;;34.30;27.67;;;5.20;99.90;;;;;;5070543;28;20040;-86
2021/05/06 05:39:13;;;;;;;36.08;30.10;;;5.20;99.90;;;;;;5073760;28;20024;-86
2021/05/06 05:47:13;;;;;;;37.13;28.10;;;5.20;99.90;;;;;;5075636;28;20106;-86
2021/05/06 05:55:05;;;;;;;33.97;27.50;;;5.20;99.90;;;;;;5075074;28;20031;-86
2021/05/06 05:57:30;;;;;;;36.90;29.23;;;5.30;99.90;;;;;;5075042;28;20021;-86
2021/05/06 05:59:56;;;;;;;31.67;26.38;;;5.30;99.90;;;;;;5090565;28;20028;-87
2021/05/06 06:02:21;;;;;;;27.80;24.67;;;5.30;99.90;;;;;;5090420;28;20479;-87
2021/05/06 06:04:47;;;;;;;28.33;24.35;;;5.40;99.90;;;;;;5073917;28;20498;-87
2021/05/06 06:07:12;;;;;;;29.98;24.48;;;5.40;99.90;;;;;;5090487;28;20036;-85
2021/05/06 06:09:38;;;;;;;28.42;23.73;;;5.40;99.90;;;;;;5074996;28;20043;-87
2021/05/06 06:12:04;;;;;;;28.17;22.83;;;5.40;99.90;;;;;;5073829;28;20020;-87
2021/05/06 06:14:49;;;;;;;29.13;22.85;;;5.50;99.90;;;;;;5075169;28;20023;-88
2021/05/06 06:17:15;;;;;;;27.35;23.48;;;5.50;99.90;;;;;;5075263;28;20039;-88
2021/05/06 06:19:47;;;;;;;25.45;22.25;;;5.50;99.90;;;;;;5075111;28;20471;-87
2021/05/06 06:22:14;;;;;;;25.98;22.08;;;5.50;99.90;;;;;;5073963;28;20383;-85
2021/05/06 06:24:39;;;;;;;28.23;21.73;;;5.60;99.90;;;;;;5073967;28;20024;-87
2021/05/06 06:27:05;;;;;;;28.00;21.80;;;5.60;99.90;;;;;;5073084;28;20024;-85
2021/05/06 06:29:34;;;;;;;24.13;20.52;;;5.70;99.90;;;;;;5089845;28;20028;-85
2021/05/06 06:32:01;;;;;;;24.75;21.83;;;5.70;99.90;;;;;;5073011;28;20051;-87
2021/05/06 06:34:27;;;;;;;26.17;22.20;;;5.70;99.90;;;;;;5073016;28;20031;-86
2021/05/06 06:36:52;;;;;;;26.95;21.90;;;5.80;99.90;;;;;;5073308;28;20066;-87
2021/05/06 06:39:18;;;;;;;29.15;22.63;;;5.80;99.90;;;;;;5089669;28;20024;-86
2021/05/06 06:41:44;;;;;;;26.60;21.85;;;5.80;99.90;;;;;;5073247;28;20020;-87
2021/05/06 06:44:10;;;;;;;23.55;20.95;;;5.90;99.90;;;;;;5072908;28;20059;-86
2021/05/06 06:46:35;;;;;;;20.58;18.38;;;6.00;99.90;;;;;;5073055;28;20044;-87
2021/05/06 06:49:02;;;;;;;20.75;18.55;;;6.10;99.90;;;;;;5072910;28;20056;-85
2021/05/06 06:51:28;;;;;;;20.92;18.73;;;6.10;99.90;;;;;;5072030;28;20082;-85
2021/05/06 06:53:54;;;;;;;23.92;19.42;;;6.10;99.90;;;;;;5071699;28;20020;-83
2021/05/06 06:56:20;;;;;;;23.13;18.50;;;6.20;99.90;;;;;;5071279;28;20025;-84
2021/05/06 06:58:49;;;;;;;20.45;17.65;;;6.20;99.90;;;;;;5071877;28;20028;-84
2021/05/06 07:01:15;;;;;;;21.13;18.80;;;6.30;99.90;;;;;;5077486;28;20028;-83
2021/05/06 07:03:41;;;;;;;22.38;18.95;;;6.30;99.90;;;;;;5071260;28;20081;-83
2021/05/06 07:06:07;;;;;;;27.42;21.08;;;6.40;99.90;;;;;;5073324;28;20103;-84
2021/05/06 07:08:34;;;;;;;25.25;19.52;;;6.50;99.90;;;;;;5072205;28;20089;-84
2021/05/06 07:11:02;;;;;;;23.00;18.52;;;6.60;99.90;;;;;;5072141;28;20028;-84
2021/05/06 07:13:28;;;;;;;23.50;18.15;;;6.60;99.90;;;;;;5071680;28;20037;-84
2021/05/06 07:16:04;;;;;;;23.17;19.52;;;6.60;99.90;;;;;;5072886;28;20013;-83
2021/05/06 07:18:32;;;;;;;24.05;19.30;;;6.60;99.90;;;;;;5059345;28;20020;-82
2021/05/06 07:20:58;;;;;;;23.48;19.65;;;6.70;99.90;;;;;;5049906;28;20040;-82
2021/05/06 07:23:25;;;;;;;24.63;19.50;;;6.80;99.90;;;;;;5056926;28;20529;-83
2021/05/06 07:25:52;;;;;;;24.58;19.20;;;6.80;99.90;;;;;;5071722;28;20031;-83
2021/05/06 07:28:21;;;;;;;23.38;18.85;;;6.80;99.90;;;;;;5072582;28;20031;-83
2021/05/06 07:30:51;;;;;;;21.98;18.00;;;6.90;99.90;;;;;;5071189;28;20034;-83
2021/05/06 07:33:17;;;;;;;20.90;17.63;;;6.90;99.90;;;;;;5088175;28;20086;-83
2021/05/06 07:35:44;;;;;;;22.73;17.88;;;7.00;99.90;;;;;;5070738;28;20028;-81
2021/05/06 07:38:11;;;;;;;23.38;17.15;;;7.10;99.90;;;;;;5071141;28;20016;-83
2021/05/06 07:40:38;;;;;;;24.27;18.42;;;7.20;99.90;;;;;;5070849;28;20107;-83
2021/05/06 07:43:05;;;;;;;23.58;18.65;;;7.30;99.90;;;;;;5071435;28;20510;-83
2021/05/06 07:45:31;;;;;;;19.35;15.57;;;7.30;99.90;;;;;;5070082;28;20052;-83
2021/05/06 07:47:58;;;;;;;56.13;27.48;;;7.40;99.90;;;;;;5071628;28;20073;-82
2021/05/06 07:50:24;;;;;;;72.43;30.13;;;7.40;99.90;;;;;;5095018;28;20059;-82
2021/05/06 07:52:54;;;;;;;254.35;107.85;;;7.40;99.90;;;;;;5071695;28;20024;-83
2021/05/06 07:55:19;;;;;;;241.63;51.03;;;7.50;99.90;;;;;;5071705;28;20070;-83
2021/05/06 07:57:45;;;;;;;25.08;20.40;;;7.30;99.90;;;;;;5088410;28;20259;-81
2021/05/06 08:00:17;;;;;;;55.53;29.27;;;7.10;99.90;;;;;;5071810;28;20070;-82
2021/05/06 08:02:43;;;;;;;34.10;22.13;;;6.90;99.90;;;;;;5072121;28;20479;-83
2021/05/06 08:05:09;;;;;;;26.92;19.15;;;6.80;99.90;;;;;;5071728;28;20504;-83
2021/05/06 08:07:35;;;;;;;22.35;19.08;;;6.80;99.90;;;;;;5069439;28;20131;-83
2021/05/06 08:10:01;;;;;;;27.42;20.98;;;6.70;99.90;;;;;;5071416;28;20129;-83
2021/05/06 08:12:27;;;;;;;23.05;19.42;;;6.70;99.90;;;;;;5071469;28;20062;-83
2021/05/06 08:14:54;;;;;;;23.90;19.48;;;6.80;99.90;;;;;;5071222;28;20020;-83
2021/05/06 08:17:20;;;;;;;27.27;20.55;;;7.00;99.90;;;;;;5071487;28;20095;-83
2021/05/06 08:19:47;;;;;;;20.92;17.17;;;7.00;99.90;;;;;;5071433;28;20021;-83
2021/05/06 08:22:13;;;;;;;25.17;20.88;;;7.00;99.90;;;;;;5071403;28;20033;-83
2021/05/06 08:24:39;;;;;;;24.63;19.17;;;7.00;99.90;;;;;;5070887;28;20024;-82
2021/05/06 08:27:05;;;;;;;23.48;19.25;;;7.00;99.90;;;;;;5070612;28;20120;-82
2021/05/06 08:29:30;;;;;;;22.10;17.77;;;7.10;99.90;;;;;;5070660;28;20047;-82
2021/05/06 08:31:56;;;;;;;23.67;18.67;;;7.10;99.90;;;;;;5070874;28;20456;-82
2021/05/06 08:34:22;;;;;;;26.05;20.27;;;7.20;99.90;;;;;;5070423;28;20028;-82
2021/05/06 08:36:48;;;;;;;28.05;20.20;;;7.40;99.90;;;;;;5071129;28;20107;-82
2021/05/06 08:39:13;;;;;;;24.20;20.15;;;7.60;99.90;;;;;;5070617;28;20111;-84
2021/05/06 08:41:40;;;;;;;23.52;18.58;;;7.90;99.90;;;;;;5071333;28;20472;-85
2021/05/06 08:44:07;;;;;;;20.38;17.02;;;8.00;99.90;;;;;;5071230;28;20094;-83
2021/05/06 08:46:35;;;;;;;20.42;16.98;;;8.00;99.90;;;;;;5072328;28;20017;-83
2021/05/06 08:49:03;;;;;;;17.48;13.90;;;8.20;99.90;;;;;;5071117;28;20476;-84
2021/05/06 08:51:29;;;;;;;17.33;14.60;;;8.20;99.90;;;;;;5072380;28;20515;-83
2021/05/06 08:53:55;;;;;;;21.35;16.15;;;8.20;99.90;;;;;;5075826;28;20028;-82
2021/05/06 08:56:21;;;;;;;19.40;16.27;;;8.10;99.90;;;;;;5073998;28;20039;-82
2021/05/06 08:58:47;;;;;;;19.33;15.93;;;8.00;99.90;;;;;;5075815;28;20031;-81
2021/05/06 09:01:12;;;;;;;20.13;15.25;;;8.00;99.90;;;;;;5075176;28;20099;-81
2021/05/06 09:03:38;;;;;;;17.08;14.60;;;8.00;99.90;;;;;;5074302;28;20114;-81
2021/05/06 09:06:17;;;;;;;17.98;14.50;;;8.00;99.90;;;;;;5074450;28;20048;-81
2021/05/06 09:08:53;;;;;;;18.13;14.27;;;8.00;99.90;;;;;;5074520;28;20495;-81
2021/05/06 09:11:33;;;;;;;18.83;14.70;;;8.00;99.90;;;;;;5074512;28;20032;-81
2021/05/06 09:14:09;;;;;;;16.45;13.93;;;8.00;99.90;;;;;;5075185;28;20052;-81
2021/05/06 09:16:43;;;;;;;19.67;15.10;;;8.00;99.90;;;;;;5073649;28;20066;-81
2021/05/06 09:19:13;;;;;;;19.08;16.10;;;8.00;99.90;;;;;;5073856;28;20024;-81
2021/05/06 09:21:42;;;;;;;16.65;14.90;;;8.10;99.90;;;;;;5071465;28;20023;-81
2021/05/06 09:24:12;;;;;;;18.15;15.55;;;8.10;99.90;;;;;;5073698;28;20027;-81
2021/05/06 09:26:38;;;;;;;;;;;8.20;99.90;;;;;;5072812;28;20023;-80
2021/05/06 09:29:07;;;;;;;19.90;15.18;;;8.40;99.90;;;;;;5073798;28;20351;-81
2021/05/06 09:31:38;;;;;;;17.58;15.05;;;8.60;99.90;;;;;;5073722;28;20043;-81
2021/05/06 09:34:06;;;;;;;16.83;14.45;;;8.80;99.90;;;;;;5074784;28;20035;-81
2021/05/06 09:36:32;;;;;;;17.20;13.95;;;8.90;99.90;;;;;;5073374;28;20016;-81
2021/05/06 09:39:00;;;;;;;18.27;15.70;;;8.90;99.90;;;;;;5073713;28;20021;-81
2021/05/06 09:41:28;;;;;;;20.00;16.08;;;8.90;99.90;;;;;;5075021;28;20078;-81
2021/05/06 09:43:54;;;;;;;15.90;14.20;;;8.80;99.90;;;;;;5075113;28;20043;-80
2021/05/06 09:46:37;;;;;;;18.60;15.80;;;8.80;99.90;;;;;;5074985;28;20460;-81
2021/05/06 09:49:05;;;;;;;19.38;15.27;;;8.80;99.90;;;;;;5073644;28;20040;-81
2021/05/06 09:51:37;;;;;;;18.15;15.52;;;8.70;99.90;;;;;;5074844;28;20028;-82
2021/05/06 09:54:12;;;;;;;17.58;15.68;;;8.70;99.90;;;;;;5073618;28;20021;-81
2021/05/06 09:56:39;;;;;;;19.45;15.35;;;8.70;99.90;;;;;;5074643;28;20104;-81
2021/05/06 09:59:05;;;;;;;18.30;14.70;;;8.70;99.90;;;;;;5073527;28;20028;-82
2021/05/06 10:01:41;;;;;;;17.95;16.02;;;8.80;99.90;;;;;;5073468;28;20024;-81
2021/05/06 10:04:21;;;;;;;21.05;15.10;;;8.80;99.90;;;;;;5074488;28;20085;-81
2021/05/06 10:07:05;;;;;;;21.85;16.92;;;8.90;99.90;;;;;;5073422;28;20040;-81
2021/05/06 10:09:31;;;;;;;18.58;16.55;;;8.90;99.90;;;;;;5073333;28;20028;-83
2021/05/06 10:12:01;;;;;;;20.02;15.52;;;8.90;99.90;;;;;;5074342;28;20025;-81
2021/05/06 10:14:26;;;;;;;18.80;15.07;;;8.90;99.90;;;;;;5074523;28;20021;-80
2021/05/06 10:16:52;;;;;;;22.98;17.80;;;8.90;99.90;;;;;;5073083;28;20316;-81
2021/05/06 10:19:18;;;;;;;25.48;18.95;;;8.80;99.90;;;;;;5073042;28;20505;-81
2021/05/06 10:21:45;;;;;;;18.00;16.20;;;8.90;99.90;;;;;;5074440;28;20016;-81
2021/05/06 10:24:11;;;;;;;11.73;10.48;;;9.00;99.90;;;;;;5074285;28;20467;-81
2021/05/06 10:26:38;;;;;;;13.77;11.95;;;8.90;96.40;;;;;;5073782;28;20051;-83
2021/05/06 10:29:05;;;;;;;12.27;10.60;;;8.80;96.80;;;;;;5072540;28;20024;-82
2021/05/06 10:31:31;;;;;;;11.45;9.95;;;8.60;95.80;;;;;;5074043;28;20040;-81
2021/05/06 10:33:57;;;;;;;12.70;10.15;;;8.40;96.10;;;;;;5075100;28;20039;-80
2021/05/06 10:36:23;;;;;;;12.48;10.90;;;8.20;96.50;;;;;;5073724;28;20099;-81
2021/05/06 10:38:49;;;;;;;12.00;10.80;;;8.20;97.70;;;;;;5074156;28;20016;-81
2021/05/06 10:41:32;;;;;;;12.45;10.75;;;8.30;97.90;;;;;;5089451;28;20585;-81
2021/05/06 10:44:02;;;;;;;13.00;9.35;;;8.50;98.10;;;;;;5073930;28;20028;-81
2021/05/06 10:47:00;;;;;;;10.07;7.78;;;9.30;98.20;;;;;;5074172;28;20036;-81
2021/05/06 10:49:31;;;;;;;7.05;6.35;;;10.60;93.70;;;;;;5073825;28;20099;-82
2021/05/06 10:52:04;;;;;;;7.78;6.25;;;11.80;91.40;;;;;;5089227;28;20039;-80
2021/05/06 10:54:42;;;;;;;6.35;5.30;;;12.70;89.20;;;;;;5072011;28;20024;-79
2021/05/06 10:57:08;;;;;;;5.68;5.07;;;13.80;82.40;;;;;;5070606;28;20016;-79
2021/05/06 10:59:41;;;;;;;5.38;3.88;;;14.10;73.30;;;;;;5071102;28;20012;-79
2021/05/06 11:02:08;;;;;;;6.13;4.50;;;14.70;75.10;;;;;;5086058;28;20035;-80
2021/05/06 11:04:41;;;;;;;6.97;4.50;;;15.50;70.50;;;;;;5072985;28;20025;-81
2021/05/06 11:07:18;;;;;;;4.13;3.72;;;16.50;67.20;;;;;;5070319;28;20511;-80
2021/05/06 11:09:45;;;;;;;3.80;3.25;;;17.60;66.00;;;;;;5071705;28;20070;-82
2021/05/06 11:12:17;;;;;;;3.38;3.08;;;18.30;66.10;;;;;;5071477;28;20426;-81
2021/05/06 11:14:58;;;;;;;3.78;3.47;;;19.70;66.40;;;;;;5072220;28;20025;-80
2021/05/06 11:17:26;;;;;;;3.92;2.47;;;20.10;62.50;;;;;;5072767;28;20103;-81
2021/05/06 11:19:51;;;;;;;4.25;3.85;;;19.90;64.90;;;;;;5088307;28;20016;-81
2021/05/06 11:22:46;;;;;;;4.80;4.40;;;20.40;63.00;;;;;;5071453;28;20028;-81
2021/05/06 11:25:38;;;;;;;6.07;4.88;;;20.90;58.70;;;;;;5086141;28;20024;-81
2021/05/06 11:28:06;;;;;;;5.50;4.32;;;21.30;54.20;;;;;;5087684;28;20027;-81
2021/05/06 11:30:44;;;;;;;4.18;3.75;;;21.30;55.40;;;;;;5071575;28;20025;-82
2021/05/06 11:33:18;;;;;;;6.38;4.72;;;20.90;55.60;;;;;;5072693;28;20124;-82
2021/05/06 11:36:11;;;;;;;5.05;4.65;;;20.20;54.80;;;;;;5071657;28;20046;-83
2021/05/06 11:38:36;;;;;;;6.68;5.20;;;19.70;54.00;;;;;;5073071;28;20519;-81
2021/05/06 11:41:25;;;;;;;5.00;4.47;;;19.40;52.80;;;;;;5071637;28;20024;-81
2021/05/06 11:43:55;;;;;;;5.47;4.85;;;19.30;52.00;;;;;;5065187;28;20031;-81
2021/05/06 11:46:26;;;;;;;4.80;4.07;;;20.20;51.10;;;;;;5071789;28;20027;-81
2021/05/06 11:48:54;;;;;;;6.15;4.97;;;20.40;50.20;;;;;;5046609;28;20032;-80
2021/05/06 11:51:43;;;;;;;6.35;5.75;;;20.80;47.80;;;;;;5047206;28;20033;-81
2021/05/06 11:54:09;;;;;;;;;;;20.20;47.50;;;;;;5053422;28;20021;-81
2021/05/06 11:56:39;;;;;;;3.80;3.50;;;20.30;48.40;;;;;;5052844;28;19905;-81
2021/05/06 11:59:07;;;;;;;3.63;3.17;;;19.70;48.10;;;;;;5052893;28;20017;-81
2021/05/06 12:01:33;;;;;;;4.93;3.88;;;19.00;50.60;;;;;;5052863;28;20384;-81
2021/05/06 12:03:58;;;;;;;8.38;4.97;;;18.50;52.60;;;;;;5051487;28;20029;-81
2021/05/06 12:06:29;;;;;;;5.10;4.60;;;18.10;55.20;;;;;;5051059;28;20029;-81
2021/05/06 12:08:55;;;;;;;5.82;5.13;;;17.50;55.60;;;;;;5052783;28;20480;-81
2021/05/06 12:11:21;;;;;;;5.45;5.03;;;16.50;53.20;;;;;;5051065;28;20032;-80
2021/05/06 12:13:49;;;;;;;7.15;6.43;;;15.90;56.90;;;;;;5052754;28;20029;-81
2021/05/06 12:16:17;;;;;;;17.10;5.82;;;15.60;55.80;;;;;;5060779;28;20032;-83
2021/05/06 12:18:57;;;;;;;9.00;8.30;;;15.30;61.00;;;;;;5071539;28;20035;-86
2021/05/06 12:21:30;;;;;;;9.65;8.57;;;15.30;75.00;;;;;;5072753;28;20027;-88
2021/05/06 12:23:58;;;;;;;7.72;7.03;;;15.10;80.70;;;;;;5071415;28;20024;-85
2021/05/06 12:26:24;;;;;;;5.82;5.28;;;15.00;79.10;;;;;;5075361;28;20464;-85
2021/05/06 12:28:49;;;;;;;7.60;6.07;;;15.50;81.30;;;;;;5075253;28;20032;-83
2021/05/06 12:31:15;;;;;;;4.50;4.03;;;15.80;83.00;;;;;;5075038;28;20055;-84
2021/05/06 12:33:40;;;;;;;4.30;3.58;;;15.40;81.40;;;;;;5076441;28;20050;-86
2021/05/06 12:36:11;;;;;;;10.80;4.35;;;15.00;82.50;;;;;;5076178;28;20020;-84
2021/05/06 12:38:37;;;;;;;7.15;5.10;;;14.60;83.00;;;;;;5076304;28;20126;-86
2021/05/06 12:41:07;;;;;;;6.10;4.43;;;14.20;85.60;;;;;;5074960;28;20070;-85
2021/05/06 12:43:35;;;;;;;5.10;4.53;;;13.60;87.00;;;;;;5076354;28;20420;-85
2021/05/06 12:46:10;;;;;;;6.53;4.30;;;13.30;88.50;;;;;;5076129;28;20090;-86
2021/05/06 12:48:44;;;;;;;5.93;4.80;;;13.20;89.50;;;;;;5075035;28;20060;-84
2021/05/06 12:51:13;;;;;;;5.45;4.82;;;13.00;89.60;;;;;;5076005;28;20030;-86
2021/05/06 12:54:05;;;;;;;7.83;6.17;;;12.90;90.80;;;;;;5074327;28;20024;-87
2021/05/06 12:56:40;;;;;;;6.70;5.40;;;13.20;92.40;;;;;;5074145;28;20471;-87
2021/05/06 12:59:28;;;;;;;4.35;3.35;;;13.80;93.80;;;;;;5075533;28;20503;-87
2021/05/06 13:02:06;;;;;;;5.40;3.92;;;15.10;93.40;;;;;;5088743;28;20016;-87
2021/05/06 13:04:41;;;;;;;4.13;3.72;;;15.90;87.40;;;;;;5072843;28;20385;-87
2021/05/06 13:07:07;;;;;;;3.88;3.47;;;16.40;82.00;;;;;;5075500;28;20020;-85
2021/05/06 13:09:40;;;;;;;4.47;4.07;;;16.40;81.00;;;;;;5075686;28;20028;-85
2021/05/06 13:12:14;;;;;;;5.10;3.80;;;16.10;78.60;;;;;;5074527;28;20035;-86
2021/05/06 13:14:48;;;;;;;5.63;4.80;;;15.70;80.90;;;;;;5075282;28;20538;-86
2021/05/06 13:17:24;;;;;;;4.50;4.07;;;15.30;83.40;;;;;;5073836;28;20025;-86
2021/05/06 13:19:50;;;;;;;5.80;4.40;;;15.00;82.60;;;;;;5073586;28;20468;-85
2021/05/06 13:22:16;;;;;;;4.95;4.10;;;14.80;81.40;;;;;;5074723;28;20035;-86
2021/05/06 13:24:43;;;;;;;5.35;4.70;;;14.50;78.50;;;;;;5075196;28;20107;-86
2021/05/06 13:27:25;;;;;;;5.72;4.22;;;14.30;81.00;;;;;;5073004;28;20028;-86
2021/05/06 13:30:02;;;;;;;5.18;4.68;;;14.10;82.70;;;;;;5063312;28;20044;-86
2021/05/06 13:32:41;;;;;;;7.70;5.90;;;13.80;82.90;;;;;;5058988;28;20445;-85
2021/05/06 13:35:15;;;;;;;7.38;6.53;;;13.30;83.80;;;;;;5066472;28;20388;-85
2021/05/06 13:37:44;;;;;;;7.55;6.75;;;12.80;84.30;;;;;;5059725;28;20028;-76
2021/05/06 13:40:10;;;;;;;7.38;6.68;;;12.40;88.00;;;;;;5055655;28;20017;-85
2021/05/06 13:42:37;;;;;;;7.07;6.38;;;12.20;90.00;;;;;;5068539;28;20138;-85
2021/05/06 13:45:04;;;;;;;6.78;6.07;;;12.30;90.90;;;;;;5052396;28;20025;-85
2021/05/06 13:47:30;;;;;;;7.65;6.78;;;12.40;92.10;;;;;;5057611;28;20028;-76
2021/05/06 13:49:55;;;;;;;6.72;6.13;;;12.60;93.10;;;;;;5054656;28;20032;-77
2021/05/06 13:52:24;;;;;;;6.68;6.00;;;12.90;93.50;;;;;;5056389;28;20118;-79
2021/05/06 13:54:50;;;;;;;7.80;7.00;;;13.10;93.30;;;;;;5054148;28;20025;-78
2021/05/06 13:57:17;;;;;;;8.05;7.25;;;13.20;92.90;;;;;;5055640;28;20017;-79
2021/05/06 13:59:42;;;;;;;9.65;7.30;;;13.20;92.90;;;;;;5056984;28;20025;-76
2021/05/06 14:02:08;;;;;;;8.95;8.13;;;13.20;92.60;;;;;;5054065;28;20483;-76
2021/05/06 14:04:34;;;;;;;9.32;7.72;;;13.20;91.60;;;;;;5088102;28;20074;-77
2021/05/06 14:06:59;;;;;;;8.35;7.38;;;13.20;90.40;;;;;;5073241;28;20516;-78
2021/05/06 14:09:25;;;;;;;10.35;8.18;;;13.20;91.00;;;;;;5074151;28;20035;-78
2021/05/06 14:11:51;;;;;;;7.53;6.82;;;13.10;91.30;;;;;;5074464;28;20034;-77
2021/05/06 14:14:17;;;;;;;8.90;7.15;;;13.20;91.20;;;;;;5090103;28;20059;-78
2021/05/06 14:16:43;;;;;;;7.00;6.30;;;13.30;91.40;;;;;;5072206;28;20040;-78
2021/05/06 14:19:12;;;;;;;6.93;6.22;;;13.40;91.20;;;;;;5072660;28;20024;-77
2021/05/06 14:21:39;;;;;;;7.43;6.13;;;13.50;90.90;;;;;;5073861;28;20349;-78
2021/05/06 14:24:06;;;;;;;8.63;6.15;;;13.60;88.30;;;;;;5074065;28;20024;-76
2021/05/06 14:26:32;;;;;;;6.85;5.57;;;13.80;88.10;;;;;;5072022;28;20033;-77
2021/05/06 14:28:58;;;;;;;7.00;6.35;;;13.80;88.00;;;;;;5073679;28;20047;-77
2021/05/06 14:31:24;;;;;;;6.80;6.10;;;13.80;87.00;;;;;;5073968;28;20089;-75
2021/05/06 14:33:50;;;;;;;8.93;7.25;;;13.90;87.90;;;;;;5072862;28;20029;-76
2021/05/06 14:36:16;;;;;;;6.05;5.45;;;14.10;86.70;;;;;;5072632;28;20480;-77
2021/05/06 14:38:41;;;;;;;6.07;5.47;;;14.20;89.30;;;;;;5071778;28;20028;-76
2021/05/06 14:41:08;;;;;;;6.68;5.85;;;14.30;88.30;;;;;;5073959;28;20491;-75
2021/05/06 14:43:34;;;;;;;8.30;7.50;;;14.30;84.20;;;;;;5073964;28;20028;-76
2021/05/06 14:46:00;;;;;;;7.30;6.60;;;14.20;83.50;;;;;;5072635;28;20035;-78
2021/05/06 14:48:26;;;;;;;7.18;6.47;;;14.20;82.30;;;;;;5087805;28;20035;-78
2021/05/06 14:50:52;;;;;;;7.65;6.95;;;14.10;82.40;;;;;;5072023;28;20025;-78
2021/05/06 14:53:18;;;;;;;7.57;5.70;;;14.00;83.40;;;;;;5072421;28;20056;-78
2021/05/06 14:55:43;;;;;;;7.28;6.57;;;13.90;84.80;;;;;;5072128;28;20491;-78
2021/05/06 14:58:09;;;;;;;5.97;5.47;;;13.90;84.10;;;;;;5072000;28;20059;-78
2021/05/06 15:00:35;;;;;;;6.60;5.90;;;14.00;85.20;;;;;;5071989;28;20032;-77
2021/05/06 15:03:02;;;;;;;6.47;5.88;;;13.90;85.00;;;;;;5073656;28;20103;-78
2021/05/06 15:05:28;;;;;;;6.43;5.82;;;13.60;85.40;;;;;;5072200;28;20435;-77
2021/05/06 15:07:54;;;;;;;5.57;5.07;;;13.50;86.00;;;;;;5071469;28;20020;-78
2021/05/06 15:10:19;;;;;;;6.15;5.47;;;13.40;86.50;;;;;;5073263;28;20439;-77
2021/05/06 15:12:46;;;;;;;6.18;5.57;;;13.30;86.80;;;;;;5072114;28;20056;-77
2021/05/06 15:15:14;;;;;;;6.82;5.80;;;13.30;86.10;;;;;;5071544;28;20047;-77
2021/05/06 15:17:40;;;;;;;6.60;5.85;;;13.10;85.70;;;;;;5072413;28;20025;-78
2021/05/06 15:20:07;;;;;;;6.40;5.53;;;13.20;86.30;;;;;;5071836;28;20016;-77
2021/05/06 15:22:32;;;;;;;7.72;6.53;;;13.20;85.90;;;;;;5071128;28;20063;-78
2021/05/06 15:24:58;;;;;;;6.85;6.15;;;13.30;84.00;;;;;;5070696;28;20437;-77
2021/05/06 15:27:23;;;;;;;6.35;5.10;;;13.30;83.40;;;;;;5071147;28;20028;-76
2021/05/06 15:29:49;;;;;;;7.10;6.38;;;13.30;83.30;;;;;;5071663;28;20027;-79
2021/05/06 15:32:15;;;;;;;6.28;5.68;;;13.30;81.80;;;;;;5088398;28;20403;-77
2021/05/06 15:34:41;;;;;;;5.85;5.20;;;13.30;81.20;;;;;;5072073;28;20054;-78
2021/05/06 15:37:08;;;;;;;6.45;5.00;;;13.40;81.10;;;;;;5073137;28;20024;-77
2021/05/06 15:39:35;;;;;;;5.53;4.85;;;13.50;80.80;;;;;;5071662;28;20467;-78
2021/05/06 15:42:01;;;;;;;4.28;3.83;;;13.40;79.70;;;;;;5073086;28;20024;-81
2021/05/06 15:44:26;;;;;;;4.20;3.80;;;13.30;79.60;;;;;;5071927;28;20024;-77
2021/05/06 15:46:58;;;;;;;4.35;3.95;;;13.20;79.30;;;;;;5071777;28;20391;-79
2021/05/06 15:49:25;;;;;;;5.85;3.97;;;13.30;78.90;;;;;;5071767;28;20025;-77
2021/05/06 15:51:51;;;;;;;4.35;3.88;;;13.10;77.40;;;;;;5072956;28;20023;-77
2021/05/06 15:54:16;;;;;;;4.03;3.65;;;13.00;77.50;;;;;;5072917;28;20104;-77
2021/05/06 15:56:42;;;;;;;4.50;3.72;;;13.00;77.50;;;;;;5072835;28;20021;-77